sensor_id;sensor_type;location;lat;lon;timestamp;pressure;altitude;pressure_sealevel;temperature;humidity
54308;BME280;40208;39.778;2.710;2023-05-08T00:02:24;101722.47;;;16.42;100.00
54308;BME280;40208;39.778;2.710;2023-05-08T00:05:24;101734.41;;;16.52;100.00
54308;BME280;40208;39.778;2.710;2023-05-08T00:08:09;101791.66;;;16.67;100.00
54308;BME280;40208;39.778;2.710;2023-05-08T00:10:59;101741.34;;;16.23;100.00
54308;BME280;40208;39.778;2.710;2023-05-08T00:13:45;101852.59;;;16.81;100.00
54308;BME280;40208;39.778;2.710;2023-05-08T00:16:31;101534.81;;;14.79;100.00
54308;BME280;40208;39.778;2.710;2023-05-08T00:19:17;101691.50;;;15.70;100.00
54308;BME280;40208;39.778;2.710;2023-05-08T00:22:05;101766.25;;;16.08;100.00
54308;BME280;40208;39.778;2.710;2023-05-08T00:24:53;101672.28;;;15.62;100.00
54308;BME280;40208;39.778;2.710;2023-05-08T00:27:38;101835.66;;;16.63;100.00
54308;BME280;40208;39.778;2.710;2023-05-08T00:30:26;101850.31;;;16.73;100.00
54308;BME280;40208;39.778;2.710;2023-05-08T00:33:11;101864.28;;;16.80;100.00
54308;BME280;40208;39.778;2.710;2023-05-08T00:36:00;101818.03;;;16.59;100.00
54308;BME280;40208;39.778;2.710;2023-05-08T00:38:49;101852.88;;;16.92;100.00
54308;BME280;40208;39.778;2.710;2023-05-08T00:41:43;101803.69;;;16.76;100.00
54308;BME280;40208;39.778;2.710;2023-05-08T00:44:31;101718.47;;;16.33;100.00
54308;BME280;40208;39.778;2.710;2023-05-08T00:47:19;101805.53;;;16.75;100.00
54308;BME280;40208;39.778;2.710;2023-05-08T00:50:10;101777.78;;;16.43;100.00
54308;BME280;40208;39.778;2.710;2023-05-08T00:53:01;101838.88;;;16.87;100.00
54308;BME280;40208;39.778;2.710;2023-05-08T00:55:53;101763.16;;;16.33;100.00
54308;BME280;40208;39.778;2.710;2023-05-08T00:58:46;101696.13;;;15.84;100.00
54308;BME280;40208;39.778;2.710;2023-05-08T01:01:33;101750.34;;;16.05;100.00
54308;BME280;40208;39.778;2.710;2023-05-08T01:04:23;101876.31;;;16.89;100.00
54308;BME280;40208;39.778;2.710;2023-05-08T01:07:13;101703.94;;;15.71;100.00
54308;BME280;40208;39.778;2.710;2023-05-08T01:09:58;101738.78;;;16.04;100.00
54308;BME280;40208;39.778;2.710;2023-05-08T01:13:10;101876.66;;;16.83;100.00
54308;BME280;40208;39.778;2.710;2023-05-08T01:16:18;101608.66;;;15.16;100.00
54308;BME280;40208;39.778;2.710;2023-05-08T01:32:10;101902.44;;;16.50;100.00
54308;BME280;40208;39.778;2.710;2023-05-08T01:38:09;101771.97;;;15.65;100.00
54308;BME280;40208;39.778;2.710;2023-05-08T01:41:35;101868.19;;;16.22;100.00
54308;BME280;40208;39.778;2.710;2023-05-08T01:44:48;101891.41;;;16.39;100.00
54308;BME280;40208;39.778;2.710;2023-05-08T01:47:52;101801.94;;;16.08;100.00
54308;BME280;40208;39.778;2.710;2023-05-08T01:50:48;101858.91;;;16.63;100.00
54308;BME280;40208;39.778;2.710;2023-05-08T01:53:52;101832.31;;;16.42;100.00
54308;BME280;40208;39.778;2.710;2023-05-08T01:56:41;101824.66;;;16.52;100.00
54308;BME280;40208;39.778;2.710;2023-05-08T01:59:41;101844.72;;;16.61;100.00
54308;BME280;40208;39.778;2.710;2023-05-08T02:02:47;101832.78;;;16.50;100.00
54308;BME280;40208;39.778;2.710;2023-05-08T02:05:43;101698.00;;;15.64;100.00
54308;BME280;40208;39.778;2.710;2023-05-08T02:08:35;101759.88;;;16.10;100.00
54308;BME280;40208;39.778;2.710;2023-05-08T02:11:31;101616.56;;;15.18;100.00
54308;BME280;40208;39.778;2.710;2023-05-08T02:14:25;101752.66;;;15.95;100.00
54308;BME280;40208;39.778;2.710;2023-05-08T02:17:17;101522.06;;;14.67;100.00
54308;BME280;40208;39.778;2.710;2023-05-08T02:20:11;101798.88;;;16.16;100.00
54308;BME280;40208;39.778;2.710;2023-05-08T02:23:00;101703.09;;;15.52;100.00
54308;BME280;40208;39.778;2.710;2023-05-08T02:25:54;101814.06;;;16.33;100.00
54308;BME280;40208;39.778;2.710;2023-05-08T02:28:54;101760.53;;;15.98;100.00
54308;BME280;40208;39.778;2.710;2023-05-08T02:31:41;101754.47;;;15.95;100.00
54308;BME280;40208;39.778;2.710;2023-05-08T02:34:35;101773.50;;;16.06;100.00
54308;BME280;40208;39.778;2.710;2023-05-08T02:37:28;101798.13;;;16.30;100.00
54308;BME280;40208;39.778;2.710;2023-05-08T02:40:53;101820.56;;;16.45;100.00
54308;BME280;40208;39.778;2.710;2023-05-08T02:43:40;101725.97;;;15.76;100.00
54308;BME280;40208;39.778;2.710;2023-05-08T02:46:38;101673.75;;;15.33;100.00
54308;BME280;40208;39.778;2.710;2023-05-08T02:49:32;101687.94;;;15.52;100.00
54308;BME280;40208;39.778;2.710;2023-05-08T02:52:41;101832.09;;;16.12;100.00
54308;BME280;40208;39.778;2.710;2023-05-08T02:55:42;101839.91;;;16.17;100.00
54308;BME280;40208;39.778;2.710;2023-05-08T02:58:45;101838.78;;;16.03;100.00
54308;BME280;40208;39.778;2.710;2023-05-08T03:02:03;101649.19;;;14.71;100.00
54308;BME280;40208;39.778;2.710;2023-05-08T03:05:04;101825.00;;;15.76;100.00
54308;BME280;40208;39.778;2.710;2023-05-08T03:08:06;101677.81;;;15.05;100.00
54308;BME280;40208;39.778;2.710;2023-05-08T03:11:08;101708.03;;;15.07;100.00
54308;BME280;40208;39.778;2.710;2023-05-08T03:14:01;101723.53;;;15.18;100.00
54308;BME280;40208;39.778;2.710;2023-05-08T03:17:01;101741.56;;;15.32;100.00
54308;BME280;40208;39.778;2.710;2023-05-08T03:20:06;101709.78;;;14.89;100.00
54308;BME280;40208;39.778;2.710;2023-05-08T03:22:56;101774.72;;;15.46;100.00
54308;BME280;40208;39.778;2.710;2023-05-08T03:25:47;101846.09;;;15.82;100.00
54308;BME280;40208;39.778;2.710;2023-05-08T03:28:39;101783.75;;;15.44;100.00
54308;BME280;40208;39.778;2.710;2023-05-08T03:31:34;101690.81;;;14.76;100.00
54308;BME280;40208;39.778;2.710;2023-05-08T03:34:27;101859.81;;;15.76;100.00
54308;BME280;40208;39.778;2.710;2023-05-08T03:37:20;101792.22;;;15.35;100.00
54308;BME280;40208;39.778;2.710;2023-05-08T03:40:09;101822.97;;;15.45;100.00
54308;BME280;40208;39.778;2.710;2023-05-08T03:43:06;101734.84;;;14.87;100.00
54308;BME280;40208;39.778;2.710;2023-05-08T03:45:55;101409.06;;;12.99;100.00
54308;BME280;40208;39.778;2.710;2023-05-08T03:48:50;101853.59;;;15.76;100.00
54308;BME280;40208;39.778;2.710;2023-05-08T03:51:43;101735.78;;;15.04;100.00
54308;BME280;40208;39.778;2.710;2023-05-08T03:54:28;101714.75;;;14.97;100.00
54308;BME280;40208;39.778;2.710;2023-05-08T03:57:26;101701.13;;;14.84;100.00
54308;BME280;40208;39.778;2.710;2023-05-08T04:00:40;101521.84;;;13.78;100.00
54308;BME280;40208;39.778;2.710;2023-05-08T04:06:39;101533.09;;;13.66;100.00
54308;BME280;40208;39.778;2.710;2023-05-08T04:09:37;101667.69;;;14.56;100.00
54308;BME280;40208;39.778;2.710;2023-05-08T04:15:34;101847.81;;;15.47;100.00
54308;BME280;40208;39.778;2.710;2023-05-08T04:18:27;101763.97;;;14.93;100.00
54308;BME280;40208;39.778;2.710;2023-05-08T04:21:22;101761.66;;;14.85;100.00
54308;BME280;40208;39.778;2.710;2023-05-08T04:24:11;101731.19;;;14.70;100.00
54308;BME280;40208;39.778;2.710;2023-05-08T04:27:02;101735.06;;;14.63;100.00
54308;BME280;40208;39.778;2.710;2023-05-08T04:29:48;101864.44;;;15.35;100.00
54308;BME280;40208;39.778;2.710;2023-05-08T04:32:44;101716.69;;;14.57;100.00
54308;BME280;40208;39.778;2.710;2023-05-08T04:35:30;101763.97;;;14.74;100.00
54308;BME280;40208;39.778;2.710;2023-05-08T04:38:17;101526.84;;;13.27;100.00
54308;BME280;40208;39.778;2.710;2023-05-08T04:41:06;101761.53;;;14.69;100.00
54308;BME280;40208;39.778;2.710;2023-05-08T04:43:52;101836.06;;;14.94;100.00
54308;BME280;40208;39.778;2.710;2023-05-08T04:46:38;101556.19;;;13.26;100.00
54308;BME280;40208;39.778;2.710;2023-05-08T04:49:29;101680.63;;;13.88;100.00
54308;BME280;40208;39.778;2.710;2023-05-08T04:52:16;101763.31;;;14.29;100.00
54308;BME280;40208;39.778;2.710;2023-05-08T04:55:06;101727.16;;;14.02;100.00
54308;BME280;40208;39.778;2.710;2023-05-08T04:57:54;101785.94;;;14.20;100.00
54308;BME280;40208;39.778;2.710;2023-05-08T05:00:41;101771.59;;;14.23;100.00
54308;BME280;40208;39.778;2.710;2023-05-08T05:03:32;101774.59;;;14.15;100.00
54308;BME280;40208;39.778;2.710;2023-05-08T05:06:19;101699.91;;;13.74;100.00
54308;BME280;40208;39.778;2.710;2023-05-08T05:09:08;101632.75;;;13.44;100.00
54308;BME280;40208;39.778;2.710;2023-05-08T05:11:52;101701.28;;;13.83;100.00
54308;BME280;40208;39.778;2.710;2023-05-08T05:14:37;101765.31;;;14.24;100.00
54308;BME280;40208;39.778;2.710;2023-05-08T05:17:24;101797.22;;;14.48;100.00
54308;BME280;40208;39.778;2.710;2023-05-08T05:20:11;101864.09;;;14.86;100.00
54308;BME280;40208;39.778;2.710;2023-05-08T05:23:01;101645.75;;;13.52;100.00
54308;BME280;40208;39.778;2.710;2023-05-08T05:25:48;101813.50;;;14.41;100.00
54308;BME280;40208;39.778;2.710;2023-05-08T05:28:32;101761.31;;;14.14;100.00
54308;BME280;40208;39.778;2.710;2023-05-08T05:31:20;101830.13;;;14.48;100.00
54308;BME280;40208;39.778;2.710;2023-05-08T05:34:04;101815.66;;;14.33;100.00
54308;BME280;40208;39.778;2.710;2023-05-08T05:36:50;101765.47;;;14.00;100.00
54308;BME280;40208;39.778;2.710;2023-05-08T05:39:34;101524.78;;;12.71;100.00
54308;BME280;40208;39.778;2.710;2023-05-08T05:42:21;101781.75;;;14.15;100.00
54308;BME280;40208;39.778;2.710;2023-05-08T05:45:13;101839.69;;;14.54;100.00
54308;BME280;40208;39.778;2.710;2023-05-08T05:48:00;101711.44;;;13.75;100.00
54308;BME280;40208;39.778;2.710;2023-05-08T05:50:54;101486.41;;;12.34;100.00
54308;BME280;40208;39.778;2.710;2023-05-08T05:53:41;101688.09;;;13.60;100.00
54308;BME280;40208;39.778;2.710;2023-05-08T05:56:26;101743.56;;;13.92;100.00
54308;BME280;40208;39.778;2.710;2023-05-08T05:59:20;101794.69;;;14.24;100.00
54308;BME280;40208;39.778;2.710;2023-05-08T06:02:06;101586.53;;;13.03;100.00
54308;BME280;40208;39.778;2.710;2023-05-08T06:04:54;101784.13;;;14.21;100.00
54308;BME280;40208;39.778;2.710;2023-05-08T06:07:38;101827.31;;;14.51;100.00
54308;BME280;40208;39.778;2.710;2023-05-08T06:10:29;101870.22;;;14.88;100.00
54308;BME280;40208;39.778;2.710;2023-05-08T06:13:17;101752.03;;;14.23;100.00
54308;BME280;40208;39.778;2.710;2023-05-08T06:16:05;101865.91;;;15.04;100.00
54308;BME280;40208;39.778;2.710;2023-05-08T06:18:51;101859.69;;;15.03;100.00
54308;BME280;40208;39.778;2.710;2023-05-08T06:21:37;101878.25;;;15.25;100.00
54308;BME280;40208;39.778;2.710;2023-05-08T06:24:24;101680.69;;;14.26;100.00
54308;BME280;40208;39.778;2.710;2023-05-08T06:27:09;101834.72;;;15.23;100.00
54308;BME280;40208;39.778;2.710;2023-05-08T06:29:56;101770.03;;;14.96;100.00
54308;BME280;40208;39.778;2.710;2023-05-08T06:32:43;101875.78;;;15.59;100.00
54308;BME280;40208;39.778;2.710;2023-05-08T06:35:45;101881.47;;;15.89;100.00
54308;BME280;40208;39.778;2.710;2023-05-08T06:38:32;101883.22;;;16.07;100.00
54308;BME280;40208;39.778;2.710;2023-05-08T06:41:16;101761.56;;;15.42;100.00
54308;BME280;40208;39.778;2.710;2023-05-08T06:44:08;101736.69;;;15.40;100.00
54308;BME280;40208;39.778;2.710;2023-05-08T06:46:59;101790.84;;;15.81;100.00
54308;BME280;40208;39.778;2.710;2023-05-08T06:49:47;101688.53;;;15.22;100.00
54308;BME280;40208;39.778;2.710;2023-05-08T06:52:32;101594.84;;;14.72;100.00
54308;BME280;40208;39.778;2.710;2023-05-08T06:55:22;101810.63;;;16.14;100.00
54308;BME280;40208;39.778;2.710;2023-05-08T06:58:07;101825.69;;;16.32;100.00
54308;BME280;40208;39.778;2.710;2023-05-08T07:00:52;101875.78;;;16.65;100.00
54308;BME280;40208;39.778;2.710;2023-05-08T07:03:40;101759.81;;;16.12;100.00
54308;BME280;40208;39.778;2.710;2023-05-08T07:06:26;101723.81;;;16.00;100.00
54308;BME280;40208;39.778;2.710;2023-05-08T07:09:18;101905.44;;;17.12;100.00
54308;BME280;40208;39.778;2.710;2023-05-08T07:12:04;101881.38;;;17.11;100.00
54308;BME280;40208;39.778;2.710;2023-05-08T07:15:02;101713.69;;;16.23;100.00
54308;BME280;40208;39.778;2.710;2023-05-08T07:17:54;101929.97;;;17.54;100.00
54308;BME280;40208;39.778;2.710;2023-05-08T07:20:39;101922.34;;;17.62;100.00
54308;BME280;40208;39.778;2.710;2023-05-08T07:23:27;101925.56;;;17.69;100.00
54308;BME280;40208;39.778;2.710;2023-05-08T07:26:16;101841.59;;;17.35;100.00
54308;BME280;40208;39.778;2.710;2023-05-08T07:29:06;101820.19;;;17.33;100.00
54308;BME280;40208;39.778;2.710;2023-05-08T07:31:51;101815.09;;;17.29;100.00
54308;BME280;40208;39.778;2.710;2023-05-08T07:34:40;101927.44;;;17.98;100.00
54308;BME280;40208;39.778;2.710;2023-05-08T07:37:25;101705.13;;;16.81;100.00
54308;BME280;40208;39.778;2.710;2023-05-08T07:40:11;101747.19;;;16.97;100.00
54308;BME280;40208;39.778;2.710;2023-05-08T07:42:56;101757.69;;;17.31;100.00
54308;BME280;40208;39.778;2.710;2023-05-08T07:45:41;101842.34;;;17.85;100.00
54308;BME280;40208;39.778;2.710;2023-05-08T07:48:27;101763.19;;;17.30;100.00
54308;BME280;40208;39.778;2.710;2023-05-08T07:51:21;101710.25;;;17.32;100.00
54308;BME280;40208;39.778;2.710;2023-05-08T07:54:12;101708.00;;;17.40;100.00
54308;BME280;40208;39.778;2.710;2023-05-08T07:56:57;101804.66;;;18.00;100.00
54308;BME280;40208;39.778;2.710;2023-05-08T07:59:42;101843.81;;;18.35;100.00
54308;BME280;40208;39.778;2.710;2023-05-08T08:02:29;101608.81;;;17.08;100.00
54308;BME280;40208;39.778;2.710;2023-05-08T08:05:14;101853.91;;;18.60;100.00
54308;BME280;40208;39.778;2.710;2023-05-08T08:08:02;101841.03;;;18.51;100.00
54308;BME280;40208;39.778;2.710;2023-05-08T08:10:51;101753.56;;;18.16;100.00
54308;BME280;40208;39.778;2.710;2023-05-08T08:13:39;101807.53;;;18.42;100.00
54308;BME280;40208;39.778;2.710;2023-05-08T08:16:26;101870.75;;;18.92;100.00
54308;BME280;40208;39.778;2.710;2023-05-08T08:19:17;101894.75;;;19.10;100.00
54308;BME280;40208;39.778;2.710;2023-05-08T08:22:04;101742.81;;;18.31;100.00
54308;BME280;40208;39.778;2.710;2023-05-08T08:24:57;101662.22;;;17.88;100.00
54308;BME280;40208;39.778;2.710;2023-05-08T08:27:44;101780.25;;;18.62;100.00
54308;BME280;40208;39.778;2.710;2023-05-08T08:30:30;101869.97;;;19.19;100.00
54308;BME280;40208;39.778;2.710;2023-05-08T08:33:19;101836.06;;;19.02;100.00
54308;BME280;40208;39.778;2.710;2023-05-08T08:36:17;101719.97;;;18.38;100.00
54308;BME280;40208;39.778;2.710;2023-05-08T08:39:06;101833.13;;;19.19;100.00
54308;BME280;40208;39.778;2.710;2023-05-08T08:41:52;101647.16;;;18.14;100.00
54308;BME280;40208;39.778;2.710;2023-05-08T08:44:40;101884.59;;;19.70;100.00
54308;BME280;40208;39.778;2.710;2023-05-08T08:47:28;101871.31;;;19.67;100.00
54308;BME280;40208;39.778;2.710;2023-05-08T08:50:22;101886.16;;;19.87;100.00
54308;BME280;40208;39.778;2.710;2023-05-08T08:53:31;101905.50;;;20.07;100.00
54308;BME280;40208;39.778;2.710;2023-05-08T08:56:22;101860.97;;;19.88;100.00
54308;BME280;40208;39.778;2.710;2023-05-08T08:59:08;101756.88;;;19.33;100.00
54308;BME280;40208;39.778;2.710;2023-05-08T09:02:00;101906.97;;;20.25;100.00
54308;BME280;40208;39.778;2.710;2023-05-08T09:04:57;101722.97;;;19.31;100.00
54308;BME280;40208;39.778;2.710;2023-05-08T09:07:44;101787.63;;;19.70;100.00
54308;BME280;40208;39.778;2.710;2023-05-08T09:10:36;101856.38;;;20.16;100.00
54308;BME280;40208;39.778;2.710;2023-05-08T09:13:25;101847.88;;;20.22;100.00
54308;BME280;40208;39.778;2.710;2023-05-08T09:16:14;101817.00;;;20.13;100.00
54308;BME280;40208;39.778;2.710;2023-05-08T09:19:07;101907.91;;;20.77;100.00
54308;BME280;40208;39.778;2.710;2023-05-08T09:21:59;101903.16;;;20.81;100.00
54308;BME280;40208;39.778;2.710;2023-05-08T09:24:59;101905.75;;;20.95;100.00
54308;BME280;40208;39.778;2.710;2023-05-08T09:28:24;101919.56;;;21.03;100.00
54308;BME280;40208;39.778;2.710;2023-05-08T09:31:19;101918.16;;;21.10;100.00
54308;BME280;40208;39.778;2.710;2023-05-08T09:34:09;101925.06;;;21.14;100.00
54308;BME280;40208;39.778;2.710;2023-05-08T09:39:50;101845.97;;;20.75;100.00
54308;BME280;40208;39.778;2.710;2023-05-08T09:42:38;101927.94;;;21.37;100.00
54308;BME280;40208;39.778;2.710;2023-05-08T09:45:40;101923.22;;;21.41;100.00
54308;BME280;40208;39.778;2.710;2023-05-08T09:48:37;101926.09;;;21.37;100.00
54308;BME280;40208;39.778;2.710;2023-05-08T09:51:30;101934.16;;;21.63;100.00
54308;BME280;40208;39.778;2.710;2023-05-08T09:54:20;101810.34;;;20.83;100.00
54308;BME280;40208;39.778;2.710;2023-05-08T09:57:11;101892.19;;;21.33;100.00
54308;BME280;40208;39.778;2.710;2023-05-08T10:03:01;101931.94;;;21.57;100.00
54308;BME280;40208;39.778;2.710;2023-05-08T10:06:11;101953.78;;;21.78;100.00
54308;BME280;40208;39.778;2.710;2023-05-08T10:11:53;101932.28;;;21.76;100.00
54308;BME280;40208;39.778;2.710;2023-05-08T10:14:44;101870.56;;;21.46;100.00
54308;BME280;40208;39.778;2.710;2023-05-08T10:17:52;101912.97;;;21.70;100.00
54308;BME280;40208;39.778;2.710;2023-05-08T10:20:44;101608.34;;;19.92;100.00
54308;BME280;40208;39.778;2.710;2023-05-08T10:23:36;101853.94;;;21.52;100.00
54308;BME280;40208;39.778;2.710;2023-05-08T10:26:30;101828.00;;;21.37;100.00
54308;BME280;40208;39.778;2.710;2023-05-08T10:29:36;101926.03;;;22.00;100.00
54308;BME280;40208;39.778;2.710;2023-05-08T10:32:43;101791.06;;;21.37;100.00
54308;BME280;40208;39.778;2.710;2023-05-08T10:35:41;101797.44;;;21.36;100.00
54308;BME280;40208;39.778;2.710;2023-05-08T10:38:29;101779.00;;;21.30;100.00
54308;BME280;40208;39.778;2.710;2023-05-08T10:41:15;101835.13;;;21.75;100.00
54308;BME280;40208;39.778;2.710;2023-05-08T10:44:05;101815.59;;;21.71;100.00
54308;BME280;40208;39.778;2.710;2023-05-08T10:50:32;101931.41;;;22.48;100.00
54308;BME280;40208;39.778;2.710;2023-05-08T10:53:48;101931.78;;;22.55;100.00
54308;BME280;40208;39.778;2.710;2023-05-08T10:56:37;101832.28;;;22.00;100.00
54308;BME280;40208;39.778;2.710;2023-05-08T10:59:27;101811.59;;;21.88;100.00
54308;BME280;40208;39.778;2.710;2023-05-08T11:02:14;101662.63;;;20.98;100.00
54308;BME280;40208;39.778;2.710;2023-05-08T11:05:17;101923.94;;;22.63;100.00
54308;BME280;40208;39.778;2.710;2023-05-08T11:08:13;101915.94;;;22.61;100.00
54308;BME280;40208;39.778;2.710;2023-05-08T11:11:15;101903.13;;;22.63;100.00
54308;BME280;40208;39.778;2.710;2023-05-08T11:14:13;101804.88;;;22.05;100.00
54308;BME280;40208;39.778;2.710;2023-05-08T11:17:07;101882.34;;;22.53;100.00
54308;BME280;40208;39.778;2.710;2023-05-08T11:20:02;101919.53;;;22.73;100.00
54308;BME280;40208;39.778;2.710;2023-05-08T11:22:53;101897.88;;;22.73;100.00
54308;BME280;40208;39.778;2.710;2023-05-08T11:25:42;101696.50;;;21.50;100.00
54308;BME280;40208;39.778;2.710;2023-05-08T11:29:02;101909.19;;;22.90;100.00
54308;BME280;40208;39.778;2.710;2023-05-08T11:32:13;101883.59;;;22.82;100.00
54308;BME280;40208;39.778;2.710;2023-05-08T11:35:06;101765.22;;;22.17;100.00
54308;BME280;40208;39.778;2.710;2023-05-08T11:41:24;101855.66;;;22.71;100.00
54308;BME280;40208;39.778;2.710;2023-05-08T11:44:18;101758.81;;;22.18;100.00
54308;BME280;40208;39.778;2.710;2023-05-08T11:47:17;101867.38;;;22.71;100.00
54308;BME280;40208;39.778;2.710;2023-05-08T11:50:12;101890.72;;;22.72;100.00
54308;BME280;40208;39.778;2.710;2023-05-08T11:53:05;101687.16;;;21.54;100.00
54308;BME280;40208;39.778;2.710;2023-05-08T11:55:54;101685.72;;;21.50;100.00
54308;BME280;40208;39.778;2.710;2023-05-08T11:58:45;101711.28;;;21.69;100.00
54308;BME280;40208;39.778;2.710;2023-05-08T12:01:34;101861.44;;;22.55;100.00
54308;BME280;40208;39.778;2.710;2023-05-08T12:04:28;101878.91;;;22.62;100.00
54308;BME280;40208;39.778;2.710;2023-05-08T12:07:19;101885.06;;;22.53;100.00
54308;BME280;40208;39.778;2.710;2023-05-08T12:10:22;101890.06;;;22.46;100.00
54308;BME280;40208;39.778;2.710;2023-05-08T12:13:26;101874.94;;;22.43;100.00
54308;BME280;40208;39.778;2.710;2023-05-08T12:16:15;101892.53;;;22.38;100.00
54308;BME280;40208;39.778;2.710;2023-05-08T12:19:19;101884.63;;;22.35;100.00
54308;BME280;40208;39.778;2.710;2023-05-08T12:22:07;101875.91;;;22.31;100.00
54308;BME280;40208;39.778;2.710;2023-05-08T12:24:58;101855.19;;;22.19;100.00
54308;BME280;40208;39.778;2.710;2023-05-08T12:27:50;101603.41;;;20.72;100.00
54308;BME280;40208;39.778;2.710;2023-05-08T12:30:48;101718.81;;;21.41;100.00
54308;BME280;40208;39.778;2.710;2023-05-08T12:34:22;101765.31;;;21.69;100.00
54308;BME280;40208;39.778;2.710;2023-05-08T12:37:23;101675.97;;;21.12;100.00
54308;BME280;40208;39.778;2.710;2023-05-08T12:40:28;101814.84;;;22.05;100.00
54308;BME280;40208;39.778;2.710;2023-05-08T12:43:13;101767.66;;;21.73;100.00
54308;BME280;40208;39.778;2.710;2023-05-08T12:46:10;101807.44;;;21.95;100.00
54308;BME280;40208;39.778;2.710;2023-05-08T12:49:32;101797.97;;;22.01;100.00
54308;BME280;40208;39.778;2.710;2023-05-08T12:52:31;101729.31;;;21.57;100.00
54308;BME280;40208;39.778;2.710;2023-05-08T12:55:24;101689.88;;;21.30;100.00
54308;BME280;40208;39.778;2.710;2023-05-08T12:58:19;101760.94;;;21.79;100.00
54308;BME280;40208;39.778;2.710;2023-05-08T13:01:16;101666.69;;;21.28;100.00
54308;BME280;40208;39.778;2.710;2023-05-08T13:04:09;101826.84;;;22.25;100.00
54308;BME280;40208;39.778;2.710;2023-05-08T13:07:00;101830.19;;;22.28;100.00
54308;BME280;40208;39.778;2.710;2023-05-08T13:09:57;101711.66;;;21.75;100.00
54308;BME280;40208;39.778;2.710;2023-05-08T13:12:53;101798.97;;;22.35;100.00
54308;BME280;40208;39.778;2.710;2023-05-08T13:15:52;101803.75;;;22.43;100.00
54308;BME280;40208;39.778;2.710;2023-05-08T13:18:52;101735.91;;;21.99;100.00
54308;BME280;40208;39.778;2.710;2023-05-08T13:21:46;101717.59;;;21.92;100.00
54308;BME280;40208;39.778;2.710;2023-05-08T13:24:33;101768.88;;;22.16;100.00
54308;BME280;40208;39.778;2.710;2023-05-08T13:27:26;101727.34;;;22.06;100.00
54308;BME280;40208;39.778;2.710;2023-05-08T13:30:22;101517.06;;;20.72;100.00
54308;BME280;40208;39.778;2.710;2023-05-08T13:33:11;101779.25;;;22.44;100.00
54308;BME280;40208;39.778;2.710;2023-05-08T13:36:05;101790.09;;;22.56;100.00
54308;BME280;40208;39.778;2.710;2023-05-08T13:38:57;101795.88;;;22.51;100.00
54308;BME280;40208;39.778;2.710;2023-05-08T13:41:42;101788.25;;;22.45;100.00
54308;BME280;40208;39.778;2.710;2023-05-08T13:44:29;101806.81;;;22.61;100.00
54308;BME280;40208;39.778;2.710;2023-05-08T13:47:30;101788.00;;;22.48;100.00
54308;BME280;40208;39.778;2.710;2023-05-08T13:50:21;101677.19;;;21.90;100.00
54308;BME280;40208;39.778;2.710;2023-05-08T13:53:17;101784.94;;;22.64;100.00
54308;BME280;40208;39.778;2.710;2023-05-08T13:56:04;101390.47;;;20.23;100.00
54308;BME280;40208;39.778;2.710;2023-05-08T13:58:58;101659.13;;;21.91;100.00
54308;BME280;40208;39.778;2.710;2023-05-08T14:01:52;101773.50;;;22.72;100.00
54308;BME280;40208;39.778;2.710;2023-05-08T14:04:55;101812.00;;;22.86;100.00
54308;BME280;40208;39.778;2.710;2023-05-08T14:07:56;101728.13;;;22.64;100.00
54308;BME280;40208;39.778;2.710;2023-05-08T14:10:42;101684.72;;;22.43;100.00
54308;BME280;40208;39.778;2.710;2023-05-08T14:13:49;101756.09;;;22.97;100.00
54308;BME280;40208;39.778;2.710;2023-05-08T14:16:40;101776.44;;;23.14;100.00
54308;BME280;40208;39.778;2.710;2023-05-08T14:19:39;101790.19;;;23.11;100.00
54308;BME280;40208;39.778;2.710;2023-05-08T14:22:33;101650.19;;;22.35;100.00
54308;BME280;40208;39.778;2.710;2023-05-08T14:26:03;101784.75;;;23.22;100.00
54308;BME280;40208;39.778;2.710;2023-05-08T14:28:55;101778.97;;;23.26;100.00
54308;BME280;40208;39.778;2.710;2023-05-08T14:31:52;101765.69;;;23.23;100.00
54308;BME280;40208;39.778;2.710;2023-05-08T14:34:49;101762.84;;;23.25;100.00
54308;BME280;40208;39.778;2.710;2023-05-08T14:37:41;101731.63;;;23.10;100.00
54308;BME280;40208;39.778;2.710;2023-05-08T14:41:14;101748.91;;;23.29;100.00
54308;BME280;40208;39.778;2.710;2023-05-08T14:44:08;101678.22;;;22.89;100.00
54308;BME280;40208;39.778;2.710;2023-05-08T14:47:06;101654.81;;;22.67;100.00
54308;BME280;40208;39.778;2.710;2023-05-08T14:50:10;101706.78;;;22.93;100.00
54308;BME280;40208;39.778;2.710;2023-05-08T14:53:10;101746.88;;;23.11;100.00
54308;BME280;40208;39.778;2.710;2023-05-08T14:56:11;101624.97;;;22.35;100.00
54308;BME280;40208;39.778;2.710;2023-05-08T14:59:05;101678.16;;;22.68;100.00
54308;BME280;40208;39.778;2.710;2023-05-08T15:01:53;101732.59;;;23.08;100.00
54308;BME280;40208;39.778;2.710;2023-05-08T15:04:46;101700.03;;;22.88;100.00
54308;BME280;40208;39.778;2.710;2023-05-08T15:07:33;101619.94;;;22.30;100.00
54308;BME280;40208;39.778;2.710;2023-05-08T15:10:32;101674.22;;;22.61;100.00
54308;BME280;40208;39.778;2.710;2023-05-08T15:13:24;101570.66;;;22.04;100.00
54308;BME280;40208;39.778;2.710;2023-05-08T15:16:21;101726.22;;;22.87;100.00
54308;BME280;40208;39.778;2.710;2023-05-08T15:19:20;101593.13;;;22.16;100.00
54308;BME280;40208;39.778;2.710;2023-05-08T15:22:09;101530.16;;;21.48;100.00
54308;BME280;40208;39.778;2.710;2023-05-08T15:25:06;101594.38;;;21.89;100.00
54308;BME280;40208;39.778;2.710;2023-05-08T15:27:59;101666.66;;;22.32;100.00
54308;BME280;40208;39.778;2.710;2023-05-08T15:30:54;101665.78;;;22.43;100.00
54308;BME280;40208;39.778;2.710;2023-05-08T15:33:52;101669.34;;;22.43;100.00